createdAt,value
2018-09-05T00:01:09.908Z,101364.33
2018-09-05T00:06:13.217Z,101363.77
2018-09-05T00:11:16.627Z,101367.95
2018-09-05T00:16:20.741Z,101366.14
2018-09-05T00:21:24.094Z,101365.35
2018-09-05T00:26:27.550Z,101363.63
2018-09-05T00:31:30.566Z,101357.26
2018-09-05T00:36:33.592Z,101356.41
2018-09-05T00:41:36.654Z,101360.00
2018-09-05T00:46:39.733Z,101356.77
2018-09-05T00:51:42.995Z,101353.52
2018-09-05T00:56:46.247Z,101353.43
2018-09-05T01:01:50.196Z,101352.01
2018-09-05T01:06:53.763Z,101357.09
2018-09-05T01:11:57.180Z,101355.86
2018-09-05T01:17:00.389Z,101358.37
2018-09-05T01:22:03.550Z,101352.07
2018-09-05T01:27:07.487Z,101348.77
2018-09-05T01:32:11.236Z,101353.48
2018-09-05T01:37:14.506Z,101354.84
2018-09-05T01:42:17.852Z,101358.55
2018-09-05T01:47:21.756Z,101361.25
2018-09-05T01:52:25.304Z,101350.92
2018-09-05T01:57:28.458Z,101345.73
2018-09-05T02:02:31.530Z,101342.29
2018-09-05T02:07:34.567Z,101346.31
2018-09-05T02:12:37.606Z,101338.78
2018-09-05T02:17:40.612Z,101340.88
2018-09-05T02:22:43.647Z,101345.45
2018-09-05T02:27:46.754Z,101345.14
2018-09-05T02:32:50.664Z,101344.96
2018-09-05T02:37:54.061Z,101340.70
2018-09-05T02:42:57.250Z,101332.42
2018-09-05T02:48:00.278Z,101334.57
2018-09-05T02:53:03.330Z,101333.59
2018-09-05T02:58:06.504Z,101341.03
2018-09-05T03:03:09.510Z,101337.87
2018-09-05T03:08:13.390Z,101337.77
2018-09-05T03:13:16.474Z,101335.60
2018-09-05T03:18:21.277Z,101336.13
2018-09-05T03:23:24.626Z,101329.06
2018-09-05T03:28:27.875Z,101331.09
2018-09-05T03:33:31.218Z,101329.68
2018-09-05T03:38:36.210Z,101329.78
2018-09-05T03:43:39.222Z,101329.32
2018-09-05T03:48:42.279Z,101332.88
2018-09-05T03:53:45.642Z,101333.84
2018-09-05T03:58:49.453Z,101337.11
2018-09-05T04:03:53.181Z,101344.09
2018-09-05T04:08:57.049Z,101342.77
2018-09-05T04:14:00.598Z,101346.36
2018-09-05T04:19:03.910Z,101347.94
2018-09-05T04:24:06.940Z,101343.97
2018-09-05T04:29:09.939Z,101351.04
2018-09-05T04:34:13.178Z,101346.37
2018-09-05T04:39:16.253Z,101345.83
2018-09-05T04:44:25.512Z,101352.60
2018-09-05T04:49:29.663Z,101351.09
2018-09-05T04:54:32.737Z,101352.47
2018-09-05T04:59:35.883Z,101357.17
2018-09-05T05:04:38.953Z,101355.06
2018-09-05T05:09:42.155Z,101370.54
2018-09-05T05:14:48.308Z,101376.00
2018-09-05T05:19:51.461Z,101379.36
2018-09-05T05:24:54.520Z,101371.75
2018-09-05T05:29:57.634Z,101373.45
2018-09-05T05:35:00.683Z,101376.80
2018-09-05T05:40:06.843Z,101377.16
2018-09-05T05:45:10.945Z,101375.66
2018-09-05T05:50:14.861Z,101377.05
2018-09-05T05:55:17.943Z,101382.25
2018-09-05T06:00:23.233Z,101391.56
2018-09-05T06:05:26.297Z,101399.23
2018-09-05T06:10:29.307Z,101402.00
2018-09-05T06:15:32.367Z,101401.80
2018-09-05T06:20:37.613Z,101409.63
2018-09-05T06:25:42.400Z,101408.44
2018-09-05T06:30:45.864Z,101414.16
2018-09-05T06:35:48.824Z,101417.77
2018-09-05T06:40:51.866Z,101420.61
2018-09-05T06:45:55.354Z,101424.13
2018-09-05T06:51:02.454Z,101424.19
2018-09-05T06:56:08.167Z,101423.87
2018-09-05T07:01:12.361Z,101426.28
2018-09-05T07:06:15.992Z,101416.52
2018-09-05T07:11:19.103Z,101426.39
2018-09-05T07:16:23.031Z,101436.48
2018-09-05T07:21:26.212Z,101440.73
2018-09-05T07:26:29.225Z,101438.55
2018-09-05T07:31:32.230Z,101431.58
2018-09-05T07:36:35.255Z,101435.07
2018-09-05T07:41:39.313Z,101437.11
2018-09-05T07:46:42.454Z,101433.85
2018-09-05T07:51:48.985Z,101441.48
2018-09-05T07:56:55.200Z,101437.48
2018-09-05T08:01:58.960Z,101437.06
2018-09-05T08:07:02.174Z,101443.02
2018-09-05T08:12:05.886Z,101443.80
2018-09-05T08:17:09.305Z,101447.05
2018-09-05T08:22:12.336Z,101441.08
2018-09-05T08:27:19.915Z,101442.34
2018-09-05T08:32:24.551Z,101442.98
2018-09-05T08:37:29.037Z,101408.89
2018-09-05T08:42:34.761Z,101440.34
2018-09-05T08:47:39.806Z,101440.83
2018-09-05T08:52:42.785Z,101441.28
2018-09-05T08:57:45.872Z,101441.59
2018-09-05T09:02:49.045Z,101441.64
2018-09-05T09:07:52.222Z,101434.27
2018-09-05T09:12:55.441Z,101433.94
2018-09-05T09:18:01.212Z,101427.17
2018-09-05T09:23:05.102Z,101434.13
2018-09-05T09:28:09.717Z,101428.39
2018-09-05T09:33:12.746Z,101424.91
2018-09-05T09:38:15.883Z,101430.75
2018-09-05T09:43:18.961Z,101429.89
2018-09-05T09:48:22.207Z,101430.95
2018-09-05T09:53:25.618Z,101425.41
2018-09-05T09:58:31.275Z,101418.62
2018-09-05T10:03:41.077Z,101414.14
2018-09-05T10:09:50.208Z,101421.52
2018-09-05T10:17:01.347Z,101412.79
2018-09-05T10:22:05.467Z,101410.83
2018-09-05T10:27:09.221Z,101399.34
2018-09-05T10:32:12.994Z,101391.65
2018-09-05T10:37:17.390Z,101394.43
2018-09-05T10:42:21.451Z,101393.59
2018-09-05T10:47:25.823Z,101387.92
2018-09-05T10:52:30.160Z,101391.09
2018-09-05T10:57:35.545Z,101390.45
2018-09-05T11:02:39.231Z,101376.14
2018-09-05T11:07:42.869Z,101370.56
2018-09-05T11:12:47.458Z,101365.94
2018-09-05T11:17:51.666Z,101353.86
2018-09-05T11:22:57.407Z,101364.02
2018-09-05T11:28:04.675Z,101372.70
2018-09-05T11:33:09.006Z,101355.43
2018-09-05T11:38:13.218Z,101347.66
2018-09-05T11:43:17.706Z,101350.63
2018-09-05T11:48:21.392Z,101349.48
2018-09-05T11:53:25.448Z,101349.94
2018-09-05T11:58:28.837Z,101343.72
2018-09-05T12:03:32.362Z,101340.02
2018-09-05T12:08:39.704Z,101337.56
2018-09-05T12:13:44.275Z,101341.16
2018-09-05T12:18:48.463Z,101336.15
2018-09-05T12:23:51.533Z,101340.02
2018-09-05T12:28:54.599Z,101327.72
2018-09-05T12:33:57.705Z,101325.73
2018-09-05T12:39:00.872Z,101316.15
2018-09-05T12:44:07.015Z,101307.52
2018-09-05T12:49:14.694Z,101307.70
2018-09-05T12:54:18.411Z,101302.34
2018-09-05T12:59:21.540Z,101295.53
2018-09-05T13:04:24.696Z,101297.09
2018-09-05T13:09:27.750Z,101287.73
2018-09-05T13:14:30.762Z,101292.11
2018-09-05T13:19:35.337Z,101287.22
2018-09-05T13:24:41.004Z,101279.26
2018-09-05T13:29:45.067Z,101272.86
2018-09-05T13:34:48.660Z,101263.55
2018-09-05T13:39:51.763Z,101262.56
2018-09-05T13:44:54.834Z,101262.06
2018-09-05T13:49:58.020Z,101257.74
2018-09-05T13:55:01.051Z,101241.95
2018-09-05T14:00:04.921Z,101243.13
2018-09-05T14:05:11.030Z,101242.83
2018-09-05T14:10:16.547Z,101229.20
2018-09-05T14:15:20.623Z,101233.42
2018-09-05T14:20:23.753Z,101225.59
2018-09-05T14:25:26.834Z,101229.09
2018-09-05T14:30:29.930Z,101224.39
2018-09-05T14:35:34.742Z,101227.92
2018-09-05T14:40:40.232Z,101217.42
2018-09-05T14:45:44.478Z,101213.31
2018-09-05T14:50:48.388Z,101206.59
2018-09-05T14:55:51.443Z,101207.23
2018-09-05T15:00:54.518Z,101200.06
2018-09-05T15:05:57.630Z,101204.55
2018-09-05T15:11:08.797Z,101191.25
2018-09-05T15:16:15.115Z,101189.38
2018-09-05T15:22:04.271Z,101177.30
2018-09-05T15:27:08.691Z,101180.30
2018-09-05T15:32:12.613Z,101174.36
2018-09-05T15:37:16.423Z,101175.07
2018-09-05T15:42:20.061Z,101171.59
2018-09-05T15:47:23.099Z,101168.98
2018-09-05T15:52:26.214Z,101165.84
2018-09-05T15:57:29.342Z,101161.08
2018-09-05T16:02:32.994Z,101155.78
2018-09-05T16:07:36.565Z,101157.50
2018-09-05T16:12:42.024Z,101157.27
2018-09-05T16:17:46.692Z,101155.05
2018-09-05T16:22:50.354Z,101158.00
2018-09-05T16:27:53.431Z,101157.85
2018-09-05T16:32:56.508Z,101153.27
2018-09-05T16:37:59.732Z,101160.70
2018-09-05T16:43:05.396Z,101151.98
2018-09-05T16:48:12.451Z,101150.52
2018-09-05T16:53:17.430Z,101147.83
2018-09-05T16:58:20.828Z,101145.63
2018-09-05T17:03:23.888Z,101146.40
2018-09-05T17:08:27.754Z,101143.11
2018-09-05T17:13:30.891Z,101141.11
2018-09-05T17:18:33.978Z,101143.62
2018-09-05T17:23:37.487Z,101144.48
2018-09-05T17:28:42.939Z,101142.12
2018-09-05T17:33:46.985Z,101146.12
2018-09-05T17:38:50.134Z,101151.30
2018-09-05T17:43:53.178Z,101147.62
2018-09-05T17:48:56.238Z,101146.63
2018-09-05T17:53:59.441Z,101144.20
2018-09-05T17:59:02.644Z,101145.20
2018-09-05T18:04:05.749Z,101142.81
2018-09-05T18:09:09.902Z,101145.05
2018-09-05T18:14:14.228Z,101148.16
2018-09-05T18:19:18.461Z,101146.41
2018-09-05T18:24:22.039Z,101151.41
2018-09-05T18:29:25.390Z,101151.40
2018-09-05T18:34:28.430Z,101149.37
2018-09-05T18:39:31.732Z,101147.94
2018-09-05T18:44:34.742Z,101151.46
2018-09-05T18:49:37.760Z,101155.61
2018-09-05T18:54:40.960Z,101156.65
2018-09-05T18:59:45.878Z,101147.66
2018-09-05T19:04:49.577Z,101156.91
2018-09-05T19:09:53.075Z,101154.22
2018-09-05T19:14:56.108Z,101144.51
2018-09-05T19:19:59.134Z,101143.88
2018-09-05T19:25:02.232Z,101136.94
2018-09-05T19:30:05.615Z,101140.42
2018-09-05T19:35:08.986Z,101139.92
2018-09-05T19:40:13.047Z,101141.68
2018-09-05T19:45:17.247Z,101140.70
2018-09-05T19:50:20.915Z,101140.67
2018-09-05T19:55:23.915Z,101142.09
2018-09-05T20:00:28.373Z,101137.86
2018-09-05T20:05:31.461Z,101138.06
2018-09-05T20:10:34.877Z,101130.78
2018-09-05T20:15:37.926Z,101136.90
2018-09-05T20:20:41.058Z,101130.55
2018-09-05T20:25:45.163Z,101128.59
2018-09-05T20:30:48.566Z,101128.75
2018-09-05T20:35:51.841Z,101119.11
2018-09-05T20:40:54.942Z,101122.51
2018-09-05T20:45:58.001Z,101126.46
2018-09-05T20:51:01.030Z,101114.08
2018-09-05T20:56:04.066Z,101115.52
2018-09-05T21:01:07.539Z,101114.44
2018-09-05T21:06:10.798Z,101116.19
2018-09-05T21:11:15.703Z,101115.53
2018-09-05T21:16:19.529Z,101107.69
2018-09-05T21:21:23.666Z,101107.16
2018-09-05T21:26:26.686Z,101103.45
2018-09-05T21:31:29.703Z,101105.47
2018-09-05T21:36:32.702Z,101113.12
2018-09-05T21:41:35.754Z,101106.48
2018-09-05T21:46:39.395Z,101102.59
2018-09-05T21:51:44.035Z,101104.43
2018-09-05T21:56:47.651Z,101103.48
2018-09-05T22:01:51.048Z,101097.09
2018-09-05T22:06:54.186Z,101098.75
2018-09-05T22:11:57.189Z,101095.98
2018-09-05T22:17:00.262Z,101099.81
2018-09-05T22:22:03.289Z,101095.44
2018-09-05T22:27:06.592Z,101091.88
2018-09-05T22:32:10.024Z,101089.66
2018-09-05T22:37:15.278Z,101089.66
2018-09-05T22:42:18.651Z,101097.25
2018-09-05T22:48:38.997Z,101088.27
2018-09-05T22:54:10.376Z,101084.28
2018-09-05T23:00:40.730Z,101079.03
2018-09-05T23:08:57.240Z,101075.08
2018-09-05T23:14:19.495Z,101073.30
2018-09-05T23:19:45.954Z,101072.06
2018-09-05T23:24:49.666Z,101062.80
2018-09-05T23:29:53.014Z,101053.81
2018-09-05T23:34:56.059Z,101053.60
2018-09-05T23:39:59.087Z,101048.69
2018-09-05T23:45:02.138Z,101047.31
2018-09-05T23:50:05.737Z,101037.44
2018-09-05T23:55:08.927Z,101038.36
